Time;durP1;ratioP1;P1;durP2;ratioP2;P2;SDS_P1;SDS_P2;PMS_P1;PMS_P2;Temp;Humidity;BMP_temperature;BMP_pressure;BME280_temperature;BME280_humidity;BME280_pressure;Samples;Min_cycle;Max_cycle;Signal;HPM_P1;HPM_P2
2022/04/14 00:00:05;;;;;;;11.93;10.73;;;;;;;;;;12282643;28;20409;-79
2022/04/14 00:06:12;;;;;;;13.77;11.13;;;;;;;;;;12314964;28;20454;-79
2022/04/14 00:27:41;;;;;;;;;;;;;;;;;;12308123;28;20051;-78
2022/04/14 00:33:42;;;;;;;10.00;9.10;;;;;;;;;;12293804;29;19914;-78
2022/04/14 00:39:44;;;;;;;10.70;9.70;;;;;;;;;;12319328;28;20047;-78
2022/04/14 00:45:49;;;;;;;10.23;9.23;;;;;;;;;;12305436;28;20051;-77
2022/04/14 00:51:51;;;;;;;10.48;9.48;;;;;;;;;;12306479;28;20507;-79
2022/04/14 00:57:53;;;;;;;10.68;9.68;;;;;;;;;;12306062;28;20511;-80
2022/04/14 01:03:55;;;;;;;11.13;10.07;;;;;;;;;;12306273;28;20047;-80
2022/04/14 01:09:57;;;;;;;9.52;8.70;;;;;;;;;;12304836;28;20047;-80
2022/04/14 01:15:59;;;;;;;9.25;8.45;;;;;;;;;;12303365;28;20019;-78
2022/04/14 01:22:19;;;;;;;9.18;8.27;;;;;;;;;;12288579;28;20054;-78
2022/04/14 01:28:21;;;;;;;10.93;9.90;;;;;;;;;;12287313;28;20473;-78
2022/04/14 01:34:23;;;;;;;11.35;10.35;;;;;;;;;;12304480;28;20046;-78
2022/04/14 01:40:25;;;;;;;10.80;9.90;;;;;;;;;;12287802;28;20056;-78
2022/04/14 01:46:26;;;;;;;9.00;8.18;;;;;;;;;;12289752;28;20051;-79
2022/04/14 01:52:28;;;;;;;10.60;9.52;;;;;;;;;;12286925;28;20035;-79
2022/04/14 01:58:30;;;;;;;10.95;10.00;;;;;;;;;;12303276;28;20393;-79
2022/04/14 02:04:32;;;;;;;10.63;9.68;;;;;;;;;;12303144;28;20043;-79
2022/04/14 02:10:33;;;;;;;9.93;9.10;;;;;;;;;;12302771;28;20515;-79
2022/04/14 02:16:35;;;;;;;10.45;9.50;;;;;;;;;;12302883;28;20042;-78
2022/04/14 02:22:43;;;;;;;10.77;9.90;;;;;;;;;;12285354;28;20047;-79
2022/04/14 02:28:45;;;;;;;10.73;9.63;;;;;;;;;;12302261;28;20035;-79
2022/04/14 02:34:47;;;;;;;11.27;10.23;;;;;;;;;;12302383;28;20365;-79
2022/04/14 02:40:49;;;;;;;12.30;11.20;;;;;;;;;;12301836;28;20393;-79
2022/04/14 02:46:51;;;;;;;12.85;11.50;;;;;;;;;;12299909;28;20054;-79
2022/04/14 02:52:54;;;;;;;11.93;10.82;;;;;;;;;;12301342;28;20046;-79
2022/04/14 02:58:56;;;;;;;13.32;11.93;;;;;;;;;;12284189;29;20040;-79
2022/04/14 03:04:58;;;;;;;12.30;11.10;;;;;;;;;;12283937;28;20502;-79
2022/04/14 03:11:00;;;;;;;10.82;9.88;;;;;;;;;;12301214;28;20394;-80
2022/04/14 03:17:02;;;;;;;12.95;10.52;;;;;;;;;;12304646;28;20046;-80
2022/04/14 03:23:03;;;;;;;8.25;7.38;;;;;;;;;;12283973;28;20127;-80
2022/04/14 03:29:05;;;;;;;11.25;10.20;;;;;;;;;;12300737;28;20036;-80
2022/04/14 03:35:07;;;;;;;12.77;11.65;;;;;;;;;;12283882;28;20050;-80
2022/04/14 03:41:09;;;;;;;12.75;11.52;;;;;;;;;;12283205;28;20062;-80
2022/04/14 03:47:11;;;;;;;12.48;11.23;;;;;;;;;;12293326;28;20055;-80
2022/04/14 03:53:13;;;;;;;12.35;11.00;;;;;;;;;;12292646;28;20520;-79
2022/04/14 03:59:15;;;;;;;13.23;11.88;;;;;;;;;;12292215;29;20035;-79
2022/04/14 04:05:17;;;;;;;;;;;;;;;;;;12292719;28;20489;-79
2022/04/14 04:11:19;;;;;;;10.68;9.77;;;;;;;;;;12291341;28;19918;-80
2022/04/14 04:17:21;;;;;;;14.15;12.85;;;;;;;;;;12308156;28;20039;-80
2022/04/14 04:23:22;;;;;;;12.27;11.18;;;;;;;;;;12308149;28;20058;-80
2022/04/14 04:29:30;;;;;;;16.60;15.02;;;;;;;;;;12323308;28;20432;-79
2022/04/14 04:35:32;;;;;;;12.95;11.75;;;;;;;;;;12290715;28;20039;-79
2022/04/14 04:41:34;;;;;;;13.52;12.32;;;;;;;;;;12289742;28;20062;-80
2022/04/14 04:47:36;;;;;;;13.90;12.70;;;;;;;;;;12291680;28;20027;-79
2022/04/14 04:53:38;;;;;;;15.37;13.87;;;;;;;;;;12289224;29;20495;-80
2022/04/14 04:59:40;;;;;;;15.68;14.18;;;;;;;;;;12306030;28;20035;-81
2022/04/14 05:05:42;;;;;;;14.55;13.13;;;;;;;;;;12289098;28;20056;-80
2022/04/14 05:11:44;;;;;;;16.90;15.40;;;;;;;;;;12289420;28;20381;-80
2022/04/14 05:17:45;;;;;;;23.50;19.42;;;;;;;;;;12288218;28;20038;-80
2022/04/14 05:23:47;;;;;;;17.42;15.77;;;;;;;;;;12288712;29;20055;-80
2022/04/14 05:29:49;;;;;;;17.42;15.60;;;;;;;;;;12304887;28;20054;-80
2022/04/14 05:35:50;;;;;;;16.20;14.63;;;;;;;;;;12288230;28;20035;-80
2022/04/14 05:41:52;;;;;;;20.35;18.35;;;;;;;;;;12290288;28;20047;-79
2022/04/14 05:47:54;;;;;;;18.37;16.57;;;;;;;;;;12290324;28;20487;-80
2022/04/14 05:53:56;;;;;;;15.00;13.50;;;;;;;;;;12285600;29;20039;-78
2022/04/14 05:59:58;;;;;;;15.55;14.00;;;;;;;;;;12300868;28;20051;-79
2022/04/14 06:06:00;;;;;;;13.60;12.30;;;;;;;;;;12303419;28;20064;-78
2022/04/14 06:12:01;;;;;;;13.65;12.43;;;;;;;;;;12285014;28;20039;-79
2022/04/14 06:18:03;;;;;;;12.23;11.13;;;;;;;;;;12300677;28;20027;-79
2022/04/14 06:24:05;;;;;;;12.80;11.60;;;;;;;;;;12302800;28;20046;-79
2022/04/14 06:30:11;;;;;;;13.88;12.68;;;;;;;;;;12301778;28;20058;-79
2022/04/14 06:36:13;;;;;;;10.43;9.60;;;;;;;;;;12303699;28;20043;-79
2022/04/14 06:42:15;;;;;;;10.95;9.93;;;;;;;;;;12308954;28;20043;-79
2022/04/14 06:48:17;;;;;;;11.50;10.32;;;;;;;;;;12318908;28;20035;-79
2022/04/14 06:54:19;;;;;;;10.37;9.40;;;;;;;;;;12300732;28;20062;-79
2022/04/14 07:00:21;;;;;;;10.50;9.48;;;;;;;;;;12300919;28;20469;-79
2022/04/14 07:06:23;;;;;;;10.55;9.55;;;;;;;;;;12283523;28;20054;-78
2022/04/14 07:12:24;;;;;;;10.75;9.65;;;;;;;;;;12300490;28;20050;-79
2022/04/14 07:18:27;;;;;;;8.47;7.67;;;;;;;;;;12283077;29;20035;-80
2022/04/14 07:24:28;;;;;;;13.32;12.05;;;;;;;;;;12301253;28;20047;-79
2022/04/14 07:30:31;;;;;;;12.25;10.95;;;;;;;;;;12325281;28;20042;-79
2022/04/14 07:36:33;;;;;;;9.73;8.73;;;;;;;;;;12292943;28;20051;-78
2022/04/14 07:42:39;;;;;;;9.67;8.57;;;;;;;;;;12292917;28;20077;-80
2022/04/14 07:48:40;;;;;;;9.80;8.50;;;;;;;;;;12302752;29;20127;-79
2022/04/14 07:54:42;;;;;;;10.00;8.70;;;;;;;;;;12292333;28;20396;-80
2022/04/14 08:00:45;;;;;;;10.10;8.77;;;;;;;;;;12291482;28;20035;-80
2022/04/14 08:06:46;;;;;;;7.57;6.70;;;;;;;;;;12291691;28;20134;-78
2022/04/14 08:12:48;;;;;;;7.27;6.67;;;;;;;;;;12290922;28;20047;-77
2022/04/14 08:18:50;;;;;;;8.40;7.43;;;;;;;;;;12290585;29;20035;-77
2022/04/14 08:24:52;;;;;;;8.53;7.30;;;;;;;;;;12316171;28;20043;-77
2022/04/14 08:30:54;;;;;;;7.10;6.40;;;;;;;;;;12290164;28;20035;-78
2022/04/14 08:36:56;;;;;;;7.45;5.75;;;;;;;;;;12306565;28;20039;-79
2022/04/14 08:43:01;;;;;;;7.80;5.90;;;;;;;;;;12289648;28;20390;-78
2022/04/14 08:49:04;;;;;;;6.15;5.55;;;;;;;;;;12273161;29;20075;-78
2022/04/14 08:55:10;;;;;;;5.75;5.07;;;;;;;;;;12288434;28;20044;-78
2022/04/14 09:01:13;;;;;;;6.07;5.47;;;;;;;;;;12288912;28;20039;-78
2022/04/14 09:07:15;;;;;;;12.20;8.02;;;;;;;;;;12313759;28;20047;-78
2022/04/14 09:13:18;;;;;;;7.28;6.35;;;;;;;;;;12272947;29;20405;-78
2022/04/14 09:19:20;;;;;;;;;;;;;;;;;;12288446;28;20031;-78
2022/04/14 09:25:22;;;;;;;5.23;4.73;;;;;;;;;;12304995;28;20379;-78
2022/04/14 09:31:23;;;;;;;9.57;7.10;;;;;;;;;;12287690;28;20139;-78
2022/04/14 09:37:26;;;;;;;9.97;6.23;;;;;;;;;;12305666;28;20047;-78
2022/04/14 09:43:29;;;;;;;4.30;3.80;;;;;;;;;;12304354;28;20294;-78
2022/04/14 09:49:31;;;;;;;6.53;5.10;;;;;;;;;;12303154;28;20058;-78
2022/04/14 09:55:34;;;;;;;5.33;4.73;;;;;;;;;;12286842;28;20043;-78
2022/04/14 10:01:36;;;;;;;7.07;4.82;;;;;;;;;;12303326;28;20047;-78
2022/04/14 10:07:57;;;;;;;7.40;5.70;;;;;;;;;;12316953;28;20149;-77
2022/04/14 10:14:23;;;;;;;6.53;4.80;;;;;;;;;;12286367;29;20043;-77
2022/04/14 10:20:25;;;;;;;6.38;4.70;;;;;;;;;;12292658;28;20042;-76
2022/04/14 10:26:27;;;;;;;7.40;4.85;;;;;;;;;;12302426;28;20050;-77
2022/04/14 10:32:28;;;;;;;6.15;3.70;;;;;;;;;;12301918;28;20039;-78
2022/04/14 10:38:31;;;;;;;6.17;5.13;;;;;;;;;;12301578;28;20066;-78
2022/04/14 10:44:46;;;;;;;3.67;2.97;;;;;;;;;;12301435;28;20050;-78
2022/04/14 10:50:51;;;;;;;4.07;3.28;;;;;;;;;;12268487;28;20039;-78
2022/04/14 10:56:52;;;;;;;4.65;3.28;;;;;;;;;;12300872;28;20038;-78
2022/04/14 11:03:03;;;;;;;5.65;3.47;;;;;;;;;;12283311;28;20042;-78
2022/04/14 11:09:06;;;;;;;4.47;3.15;;;;;;;;;;12283770;29;20035;-77
2022/04/14 11:15:08;;;;;;;6.03;3.63;;;;;;;;;;12305593;28;20485;-78
2022/04/14 11:21:10;;;;;;;4.00;2.83;;;;;;;;;;12299775;28;20031;-78
2022/04/14 11:27:15;;;;;;;4.45;3.30;;;;;;;;;;12277735;29;20043;-78
2022/04/14 11:33:32;;;;;;;3.67;2.70;;;;;;;;;;12305149;29;20047;-77
2022/04/14 11:39:37;;;;;;;4.97;3.22;;;;;;;;;;12282722;29;20061;-77
2022/04/14 11:45:39;;;;;;;5.50;3.33;;;;;;;;;;12299906;29;20046;-77
2022/04/14 11:52:00;;;;;;;5.78;3.85;;;;;;;;;;12299734;29;20500;-77
2022/04/14 11:58:13;;;;;;;3.40;2.92;;;;;;;;;;12282721;29;20031;-78
2022/04/14 12:04:14;;;;;;;;;;;;;;;;;;12300937;29;20047;-78
2022/04/14 12:10:16;;;;;;;5.88;3.47;;;;;;;;;;12284069;28;20398;-78
2022/04/14 12:16:18;;;;;;;5.38;3.17;;;;;;;;;;12311334;29;20054;-77
2022/04/14 12:22:20;;;;;;;1.70;1.52;;;;;;;;;;12290796;29;20124;-78
2022/04/14 12:28:22;;;;;;;2.17;1.38;;;;;;;;;;12307444;29;20031;-78
2022/04/14 12:34:23;;;;;;;4.38;2.55;;;;;;;;;;12307630;29;20035;-78
2022/04/14 12:40:26;;;;;;;5.80;4.03;;;;;;;;;;12307356;29;20062;-78
2022/04/14 12:46:36;;;;;;;3.13;2.03;;;;;;;;;;12299995;28;20528;-78
2022/04/14 12:52:38;;;;;;;3.08;2.22;;;;;;;;;;12289678;29;20039;-79
2022/04/14 12:58:40;;;;;;;3.60;2.47;;;;;;;;;;12306082;29;20404;-78
2022/04/14 13:04:43;;;;;;;2.25;1.35;;;;;;;;;;12307194;29;20043;-78
2022/04/14 13:10:47;;;;;;;2.97;2.05;;;;;;;;;;12288569;29;20039;-78
2022/04/14 13:16:50;;;;;;;5.88;3.60;;;;;;;;;;12288839;29;20034;-78
2022/04/14 13:22:52;;;;;;;7.50;5.10;;;;;;;;;;12304378;28;20400;-77
2022/04/14 13:28:54;;;;;;;6.68;4.45;;;;;;;;;;12288420;29;20042;-77
2022/04/14 13:34:56;;;;;;;;;;;;;;;;;;12305839;29;20527;-77
2022/04/14 13:40:57;;;;;;;6.00;4.10;;;;;;;;;;12305401;29;20526;-78
2022/04/14 13:46:59;;;;;;;5.45;3.90;;;;;;;;;;12286772;29;20055;-78
2022/04/14 13:53:01;;;;;;;6.22;3.90;;;;;;;;;;12287206;29;20047;-78
2022/04/14 13:59:03;;;;;;;;;;;;;;;;;;12302998;28;20050;-77
2022/04/14 14:05:05;;;;;;;3.70;2.80;;;;;;;;;;12286745;29;19922;-78
2022/04/14 14:11:06;;;;;;;;;;;;;;;;;;12287296;29;20046;-78
2022/04/14 14:17:09;;;;;;;3.80;2.60;;;;;;;;;;12294764;28;20291;-78
2022/04/14 14:23:10;;;;;;;4.03;2.85;;;;;;;;;;12285492;29;20439;-77
2022/04/14 14:29:12;;;;;;;4.75;2.90;;;;;;;;;;12285424;29;20488;-78
2022/04/14 14:35:14;;;;;;;5.47;3.03;;;;;;;;;;12302448;28;20054;-78
2022/04/14 14:41:17;;;;;;;4.32;2.50;;;;;;;;;;12302671;29;20066;-78
2022/04/14 14:47:19;;;;;;;6.25;3.13;;;;;;;;;;12284642;29;20054;-79
2022/04/14 14:53:21;;;;;;;6.57;4.20;;;;;;;;;;12301349;29;20039;-78
2022/04/14 14:59:22;;;;;;;5.32;2.55;;;;;;;;;;12284233;29;20038;-78
2022/04/14 15:05:24;;;;;;;4.70;2.38;;;;;;;;;;12284677;29;20050;-78
2022/04/14 15:11:26;;;;;;;5.47;2.80;;;;;;;;;;12284459;29;20050;-78
2022/04/14 15:17:28;;;;;;;;;;;;;;;;;;12283709;29;20400;-78
2022/04/14 15:23:29;;;;;;;4.13;2.47;;;;;;;;;;12300599;29;19922;-78
2022/04/14 15:29:31;;;;;;;3.80;2.33;;;;;;;;;;12315162;28;20036;-77
2022/04/14 15:35:35;;;;;;;2.95;1.52;;;;;;;;;;12284579;29;20050;-77
2022/04/14 15:41:37;;;;;;;2.28;1.52;;;;;;;;;;12283636;29;20519;-77
2022/04/14 15:47:38;;;;;;;5.05;2.53;;;;;;;;;;12286614;28;20051;-77
2022/04/14 15:53:40;;;;;;;3.67;2.45;;;;;;;;;;12292134;29;20046;-78
2022/04/14 15:59:43;;;;;;;5.57;2.40;;;;;;;;;;12291481;29;20477;-78
2022/04/14 16:05:45;;;;;;;4.80;2.70;;;;;;;;;;12309580;29;20062;-78
2022/04/14 16:12:05;;;;;;;5.28;2.47;;;;;;;;;;12318096;29;20441;-78
2022/04/14 16:18:07;;;;;;;3.85;2.20;;;;;;;;;;12314246;29;20358;-78
2022/04/14 16:24:11;;;;;;;5.07;2.20;;;;;;;;;;12290386;29;20054;-78
2022/04/14 16:30:13;;;;;;;3.40;2.08;;;;;;;;;;12290056;29;20039;-78
2022/04/14 16:36:15;;;;;;;2.90;1.88;;;;;;;;;;12290990;29;20050;-78
2022/04/14 16:42:17;;;;;;;;;;;;;;;;;;12308077;29;20070;-78
2022/04/14 16:48:19;;;;;;;2.23;1.53;;;;;;;;;;12306463;29;19921;-78
2022/04/14 16:54:21;;;;;;;3.65;2.00;;;;;;;;;;12288760;29;20038;-78
2022/04/14 17:00:22;;;;;;;2.58;1.70;;;;;;;;;;12306199;28;20038;-78
2022/04/14 17:06:44;;;;;;;2.45;1.65;;;;;;;;;;12306519;29;20055;-78
2022/04/14 17:12:46;;;;;;;4.43;2.20;;;;;;;;;;12288624;29;20039;-78
2022/04/14 17:18:47;;;;;;;;;;;;;;;;;;12303467;28;20102;-78
2022/04/14 17:24:49;;;;;;;3.20;2.90;;;;;;;;;;12305065;29;19923;-78
2022/04/14 17:30:51;;;;;;;2.60;2.38;;;;;;;;;;12295207;28;20039;-79
2022/04/14 17:36:53;;;;;;;4.32;2.22;;;;;;;;;;12288465;29;20047;-79
2022/04/14 17:42:54;;;;;;;;;;;;;;;;;;12288565;29;20054;-78
2022/04/14 17:48:56;;;;;;;2.10;1.90;;;;;;;;;;12309346;29;19910;-78
2022/04/14 17:54:58;;;;;;;5.20;2.97;;;;;;;;;;12286537;29;20024;-78
2022/04/14 18:01:00;;;;;;;3.83;3.20;;;;;;;;;;12286221;29;20407;-78
2022/04/14 18:07:02;;;;;;;2.95;2.67;;;;;;;;;;12286294;29;20039;-78
2022/04/14 18:13:03;;;;;;;8.35;6.50;;;;;;;;;;12285334;29;20481;-79
2022/04/14 18:19:05;;;;;;;7.22;4.93;;;;;;;;;;12302412;29;20370;-78
2022/04/14 18:25:08;;;;;;;8.53;6.50;;;;;;;;;;12305616;29;20046;-77
2022/04/14 18:31:10;;;;;;;7.20;4.50;;;;;;;;;;12290052;29;20035;-75
2022/04/14 18:37:12;;;;;;;6.00;4.50;;;;;;;;;;12285173;29;20495;-84
2022/04/14 18:43:13;;;;;;;4.75;3.80;;;;;;;;;;12284615;29;20054;-78
2022/04/14 18:49:18;;;;;;;4.37;3.97;;;;;;;;;;12284798;29;20034;-80
2022/04/14 18:55:21;;;;;;;4.80;3.60;;;;;;;;;;12311820;28;20777;-79
2022/04/14 19:01:24;;;;;;;9.45;4.80;;;;;;;;;;12300864;29;20038;-78
2022/04/14 19:07:26;;;;;;;6.88;4.25;;;;;;;;;;12284618;29;20054;-78
2022/04/14 19:13:29;;;;;;;5.20;4.63;;;;;;;;;;12283425;29;20039;-78
2022/04/14 19:19:31;;;;;;;5.35;3.83;;;;;;;;;;12301451;28;20039;-78
2022/04/14 19:25:33;;;;;;;6.57;4.90;;;;;;;;;;12293103;29;20051;-77
2022/04/14 19:31:34;;;;;;;7.17;4.83;;;;;;;;;;12309902;29;20035;-77
2022/04/14 19:37:37;;;;;;;5.28;4.78;;;;;;;;;;12310889;29;20039;-79
2022/04/14 19:43:39;;;;;;;5.30;4.50;;;;;;;;;;12262193;29;20052;-79
2022/04/14 19:49:44;;;;;;;3.90;3.20;;;;;;;;;;12260926;29;20449;-76
2022/04/14 19:55:46;;;;;;;3.90;3.60;;;;;;;;;;12262011;29;20047;-78
2022/04/14 20:01:50;;;;;;;3.83;3.47;;;;;;;;;;12260527;29;20039;-77
2022/04/14 20:07:52;;;;;;;8.25;7.38;;;;;;;;;;12261106;29;20052;-79
2022/04/14 20:13:54;;;;;;;6.90;6.17;;;;;;;;;;12260707;29;20485;-82
2022/04/14 20:19:56;;;;;;;4.93;4.35;;;;;;;;;;12259122;29;20032;-78
2022/04/14 20:25:58;;;;;;;5.37;4.60;;;;;;;;;;12259983;29;20047;-77
2022/04/14 20:31:59;;;;;;;5.83;5.17;;;;;;;;;;12258878;29;20035;-79
2022/04/14 20:38:03;;;;;;;6.20;5.53;;;;;;;;;;12261971;29;20043;-78
2022/04/14 20:44:05;;;;;;;6.20;5.30;;;;;;;;;;12306497;29;20058;-75
2022/04/14 20:50:09;;;;;;;5.40;4.90;;;;;;;;;;12289609;29;20369;-77
2022/04/14 20:56:11;;;;;;;5.80;5.15;;;;;;;;;;12289282;29;20341;-77
2022/04/14 21:02:13;;;;;;;6.93;5.03;;;;;;;;;;12306384;29;20046;-78
2022/04/14 21:08:14;;;;;;;5.53;4.93;;;;;;;;;;12329151;28;20501;-80
2022/04/14 21:14:16;;;;;;;5.80;4.82;;;;;;;;;;12288707;29;20042;-80
2022/04/14 21:20:18;;;;;;;6.03;5.45;;;;;;;;;;12305860;29;20035;-80
2022/04/14 21:26:20;;;;;;;5.83;4.97;;;;;;;;;;12305219;29;20058;-80
2022/04/14 21:32:22;;;;;;;7.03;5.80;;;;;;;;;;12288508;29;20271;-80
2022/04/14 21:38:23;;;;;;;7.05;6.35;;;;;;;;;;12287827;29;20050;-80
2022/04/14 21:44:26;;;;;;;9.40;6.87;;;;;;;;;;12303492;28;20047;-80
2022/04/14 21:50:28;;;;;;;6.28;5.22;;;;;;;;;;12287721;29;20039;-80
2022/04/14 21:56:29;;;;;;;5.97;5.00;;;;;;;;;;12303886;29;20047;-80
2022/04/14 22:02:31;;;;;;;6.63;5.65;;;;;;;;;;12303862;29;20031;-79
2022/04/14 22:08:33;;;;;;;7.87;6.37;;;;;;;;;;12308396;29;20046;-77
2022/04/14 22:14:35;;;;;;;7.93;6.78;;;;;;;;;;12315927;28;20042;-79
2022/04/14 22:20:37;;;;;;;5.15;4.60;;;;;;;;;;12286885;29;20043;-80
2022/04/14 22:26:39;;;;;;;7.20;6.10;;;;;;;;;;12303057;29;20043;-79
2022/04/14 22:32:40;;;;;;;6.30;5.70;;;;;;;;;;12302751;29;20376;-80
2022/04/14 22:38:42;;;;;;;7.88;5.47;;;;;;;;;;12284811;29;20055;-80
2022/04/14 22:44:45;;;;;;;6.40;4.90;;;;;;;;;;12302752;29;20416;-80
2022/04/14 22:50:47;;;;;;;6.40;5.80;;;;;;;;;;12302297;29;20031;-80
2022/04/14 22:56:49;;;;;;;6.05;5.45;;;;;;;;;;12284573;28;20407;-80
2022/04/14 23:02:51;;;;;;;5.95;5.45;;;;;;;;;;12286884;28;20035;-78
2022/04/14 23:08:53;;;;;;;6.53;5.80;;;;;;;;;;12298724;28;20050;-79
2022/04/14 23:14:57;;;;;;;6.68;5.65;;;;;;;;;;12283841;29;20290;-81
2022/04/14 23:21:03;;;;;;;6.25;4.75;;;;;;;;;;12301149;29;20039;-79
2022/04/14 23:27:04;;;;;;;4.97;4.13;;;;;;;;;;12300874;29;20043;-80
2022/04/14 23:33:06;;;;;;;5.55;5.05;;;;;;;;;;12283841;28;20027;-80
2022/04/14 23:45:23;;;;;;;6.13;5.53;;;;;;;;;;12310439;28;20043;-79
2022/04/14 23:51:25;;;;;;;6.45;5.85;;;;;;;;;;12299681;28;20039;-80
2022/04/14 23:57:27;;;;;;;7.07;4.83;;;;;;;;;;12300078;29;20094;-80
